ENMH

Mehamn Airport

Mehamn, Norway
METAR ENMH 170250Z 21008KT 9999 -RA FEW009 BKN018 06/04 Q1010
Observed Flight Rules
Oct-17 @ 02:50 UTC (21 minutes ago) Marginal Visual Flight Rules
Wind Visibility Clouds Conditions
210° at 8 knots 10,000+ meters
  • Few at 900' AGL
  • Broken at 1,800' AGL
  • Light Rain
Temperatures Readings
Current 6°C / 43°F
Dewpoint 4°C / 39°F
Humidity 87%
Altimeter 29.82" Hg
Pressure 1010 hPa
Elevation 13
METAR ENMH 170250Z 21008KT 9999 -RA FEW009 BKN018 06/04 Q1010
Observed Flight Rules
Oct-17 @ 02:50 UTC
(21 minutes ago)
MVFR
Wind Visibility
210° at 8 knots 10,000+ meters
Clouds
  • Few at 900' AGL
  • Broken at 1,800' AGL
Conditions
  • Light Rain
Temperature Dewpoint
6°C / 43°F 4°C / 39°F
Humidity Altimeter Pressure
87% 29.82" Hg 1010 hPa